Time;durP1;ratioP1;P1;durP2;ratioP2;P2;SDS_P1;SDS_P2;PMS_P1;PMS_P2;Temp;Humidity;BMP_temperature;BMP_pressure;BME280_temperature;BME280_humidity;BME280_pressure;Samples;Min_cycle;Max_cycle;Signal;HPM_P1;HPM_P2
2024/02/06 00:00:37;;;;;;;3.83;1.50;;;;;;;10.15;90.54;100351.47;5055008;28;20529;-67
2024/02/06 00:03:04;;;;;;;3.07;1.30;;;;;;;10.13;90.79;100338.22;5068328;22;21661;-70
2024/02/06 00:05:32;;;;;;;3.33;1.50;;;;;;;10.17;90.75;100338.41;5054628;28;20759;-69
2024/02/06 00:07:59;;;;;;;2.43;1.13;;;;;;;10.14;90.56;100341.72;5054417;28;20437;-69
2024/02/06 00:10:26;;;;;;;3.87;1.43;;;;;;;10.15;90.92;100340.66;5054616;28;20442;-68
2024/02/06 00:12:52;;;;;;;5.40;1.40;;;;;;;10.12;91.20;100342.03;5054252;28;20954;-70
2024/02/06 00:15:19;;;;;;;3.80;1.73;;;;;;;10.11;90.83;100329.63;5054220;28;20457;-72
2024/02/06 00:17:45;;;;;;;6.47;2.27;;;;;;;10.09;91.24;100321.00;5054174;28;21113;-69
2024/02/06 00:20:12;;;;;;;3.00;1.33;;;;;;;10.05;91.26;100326.22;5054502;28;20465;-70
2024/02/06 00:22:40;;;;;;;3.40;1.53;;;;;;;10.02;91.22;100331.44;5054283;28;20470;-70
2024/02/06 00:25:08;;;;;;;3.80;1.27;;;;;;;9.96;91.75;100329.94;5054224;28;20498;-71
2024/02/06 00:27:34;;;;;;;3.30;1.80;;;;;;;9.96;90.90;100322.66;5054125;28;20442;-69
2024/02/06 00:30:01;;;;;;;2.93;1.13;;;;;;;9.94;91.14;100324.03;5054054;28;20954;-69
2024/02/06 00:32:27;;;;;;;2.90;1.17;;;;;;;9.99;90.79;100323.94;5054058;28;20545;-69
2024/02/06 00:34:56;;;;;;;3.40;1.40;;;;;;;10.00;89.89;100320.09;5054262;28;20521;-69
2024/02/06 00:37:23;;;;;;;3.50;1.33;;;;;;;9.95;90.06;100312.09;5054104;28;20446;-69
2024/02/06 00:39:51;;;;;;;3.23;1.67;;;;;;;10.02;89.16;100310.59;5053839;28;20529;-70
2024/02/06 00:42:18;;;;;;;3.10;1.17;;;;;;;10.04;88.99;100310.28;5054205;28;20954;-69
2024/02/06 00:44:44;;;;;;;3.70;1.53;;;;;;;10.01;89.33;100308.19;5053944;28;20490;-69
2024/02/06 00:47:11;;;;;;;2.30;1.13;;;;;;;10.01;88.77;100311.72;5054349;28;20522;-69
2024/02/06 00:49:38;;;;;;;2.77;1.00;;;;;;;10.02;88.75;100324.13;5054152;28;20525;-69
2024/02/06 00:52:04;;;;;;;3.90;1.00;;;;;;;10.08;87.83;100312.06;5053724;28;21045;-69
2024/02/06 00:54:31;;;;;;;2.47;0.97;;;;;;;10.08;87.94;100303.16;5053825;28;20515;-69
2024/02/06 00:56:59;;;;;;;4.63;1.33;;;;;;;10.12;87.93;100314.97;5054186;28;20534;-69
2024/02/06 00:59:27;;;;;;;2.43;0.93;;;;;;;10.06;88.29;100306.19;5053454;28;20485;-69
2024/02/06 01:01:54;;;;;;;2.80;1.20;;;;;;;10.10;87.66;100320.72;5053702;28;20468;-69
2024/02/06 01:04:21;;;;;;;4.57;0.87;;;;;;;10.08;88.75;100324.81;5053924;28;20573;-70
2024/02/06 01:06:47;;;;;;;2.20;0.70;;;;;;;10.11;87.39;100330.41;5053749;28;20859;-69
2024/02/06 01:09:14;;;;;;;3.83;1.30;;;;;;;10.07;88.12;100324.00;5053931;28;20448;-70
2024/02/06 01:11:41;;;;;;;3.77;1.20;;;;;;;10.16;87.47;100320.59;5053564;28;20458;-70
2024/02/06 01:14:09;;;;;;;2.67;1.10;;;;;;;10.11;88.17;100329.63;5053584;28;20431;-69
2024/02/06 01:16:35;;;;;;;3.13;0.87;;;;;;;10.09;88.30;100342.63;5053594;28;20477;-70
2024/02/06 01:19:02;;;;;;;2.97;1.17;;;;;;;10.16;87.10;100326.81;5053812;28;20444;-70
2024/02/06 01:21:29;;;;;;;2.57;1.07;;;;;;;10.14;88.21;100325.50;5053420;28;20521;-69
2024/02/06 01:23:55;;;;;;;2.10;1.03;;;;;;;10.08;88.57;100332.94;5053749;28;20565;-70
2024/02/06 01:26:22;;;;;;;3.53;1.60;;;;;;;10.04;88.45;100321.91;5053489;28;20528;-69
2024/02/06 01:28:49;;;;;;;3.50;1.37;;;;;;;10.07;88.17;100334.03;5053497;28;20441;-70
2024/02/06 01:31:17;;;;;;;3.10;1.07;;;;;;;10.04;88.71;100329.22;5053362;28;20438;-69
2024/02/06 01:33:43;;;;;;;2.90;1.10;;;;;;;10.04;89.16;100326.53;5053539;28;20477;-69
2024/02/06 01:36:10;;;;;;;4.20;0.90;;;;;;;10.06;89.56;100332.44;5053695;28;20480;-69
2024/02/06 01:38:37;;;;;;;2.50;1.13;;;;;;;10.08;89.61;100317.50;5053493;28;20438;-68
2024/02/06 01:41:04;;;;;;;2.83;0.80;;;;;;;10.06;89.70;100317.00;5057276;28;20613;-69
2024/02/06 01:43:30;;;;;;;2.50;1.07;;;;;;;10.00;90.20;100310.09;5057448;28;20486;-69
2024/02/06 01:45:57;;;;;;;2.57;1.17;;;;;;;9.95;90.83;100304.00;5057394;28;20525;-69
2024/02/06 01:48:25;;;;;;;3.03;1.00;;;;;;;10.00;90.22;100317.41;5057059;28;20784;-69
2024/02/06 01:50:52;;;;;;;2.23;0.87;;;;;;;9.91;90.88;100306.50;5057322;28;20440;-69
2024/02/06 01:53:21;;;;;;;2.90;1.17;;;;;;;9.87;91.24;100316.31;5057245;28;20477;-68
2024/02/06 01:55:49;;;;;;;2.07;0.83;;;;;;;9.91;90.92;100314.59;5057494;28;20461;-69
2024/02/06 01:58:16;;;;;;;3.00;1.13;;;;;;;9.89;91.54;100305.22;5057526;28;20877;-70
2024/02/06 02:00:44;;;;;;;2.90;0.97;;;;;;;9.86;91.82;100296.59;5057133;28;20434;-70
2024/02/06 02:03:11;;;;;;;2.60;1.00;;;;;;;9.89;91.35;100289.78;5056688;28;20466;-69
2024/02/06 02:05:40;;;;;;;4.53;1.70;;;;;;;9.92;91.82;100305.41;5057203;28;20448;-68
2024/02/06 02:08:08;;;;;;;4.57;1.40;;;;;;;9.96;91.59;100311.81;5056670;28;20879;-70
2024/02/06 02:10:34;;;;;;;3.07;1.10;;;;;;;9.93;91.80;100300.81;5056661;28;20529;-70
2024/02/06 02:13:02;;;;;;;2.03;0.73;;;;;;;9.83;92.46;100288.28;5056885;28;20855;-69
2024/02/06 02:15:29;;;;;;;2.60;1.03;;;;;;;9.81;93.09;100290.50;5057027;28;20438;-69
2024/02/06 02:17:55;;;;;;;2.00;0.80;;;;;;;9.80;92.97;100289.69;5056770;28;20488;-69
2024/02/06 02:20:22;;;;;;;3.40;1.30;;;;;;;9.85;92.68;100283.38;5057159;28;20533;-69
2024/02/06 02:22:50;;;;;;;2.30;0.60;;;;;;;9.90;92.53;100280.56;5056648;28;20489;-69
2024/02/06 02:25:17;;;;;;;3.60;1.37;;;;;;;9.90;92.53;100261.63;5056618;28;20565;-69
2024/02/06 02:27:44;;;;;;;2.73;1.10;;;;;;;9.83;93.13;100270.16;5056490;28;20785;-68
2024/02/06 02:30:12;;;;;;;2.50;1.00;;;;;;;9.84;93.23;100266.34;5056934;28;20450;-68
2024/02/06 02:32:40;;;;;;;3.87;1.20;;;;;;;9.82;92.99;100263.13;5056534;28;20485;-69
2024/02/06 02:35:07;;;;;;;2.63;1.07;;;;;;;9.88;92.79;100271.94;5056530;28;20436;-69
2024/02/06 02:37:34;;;;;;;3.57;1.23;;;;;;;9.83;92.97;100267.44;5056648;28;20488;-69
2024/02/06 02:40:02;;;;;;;2.40;0.70;;;;;;;9.79;93.53;100263.75;5056390;28;20465;-68
2024/02/06 02:42:29;;;;;;;2.37;0.90;;;;;;;9.76;93.97;100263.56;5056013;28;20461;-68
2024/02/06 02:44:56;;;;;;;3.00;1.40;;;;;;;9.74;93.66;100249.50;5056289;28;20525;-68
2024/02/06 02:47:22;;;;;;;3.00;1.17;;;;;;;9.81;93.29;100236.38;5056360;28;20446;-68
2024/02/06 02:49:49;;;;;;;3.07;1.10;;;;;;;9.78;93.67;100251.34;5056092;28;20446;-68
2024/02/06 02:52:15;;;;;;;2.00;0.70;;;;;;;9.83;93.28;100242.31;5056189;28;20464;-68
2024/02/06 02:54:42;;;;;;;4.03;1.50;;;;;;;9.78;92.99;100237.00;5056155;28;20472;-69
2024/02/06 02:57:10;;;;;;;2.10;0.60;;;;;;;9.72;94.33;100236.31;5056402;28;20450;-69
2024/02/06 02:59:37;;;;;;;2.20;0.90;;;;;;;9.70;94.80;100232.31;5056148;28;20525;-69
2024/02/06 03:02:03;;;;;;;2.60;1.10;;;;;;;9.65;94.87;100230.53;5056152;28;20542;-69
2024/02/06 03:04:30;;;;;;;2.50;1.37;;;;;;;9.64;95.05;100228.91;5055915;28;20575;-69
2024/02/06 03:06:57;;;;;;;3.00;1.37;;;;;;;9.70;94.90;100225.00;5056009;28;20434;-69
2024/02/06 03:09:23;;;;;;;2.40;1.20;;;;;;;9.70;94.81;100230.41;5055551;28;20529;-69
2024/02/06 03:11:50;;;;;;;4.17;1.50;;;;;;;9.68;94.80;100221.00;5055482;28;21045;-68
2024/02/06 03:14:18;;;;;;;2.70;1.10;;;;;;;9.66;94.97;100215.09;5056339;28;20521;-68
2024/02/06 03:16:44;;;;;;;2.40;0.87;;;;;;;9.63;95.43;100215.69;5056105;28;20473;-68
2024/02/06 03:19:11;;;;;;;3.00;1.33;;;;;;;9.62;95.51;100224.91;5055723;28;20478;-68
2024/02/06 03:21:37;;;;;;;3.40;0.90;;;;;;;9.61;95.75;100218.72;5055985;28;20441;-68
2024/02/06 03:24:05;;;;;;;2.80;1.40;;;;;;;9.63;95.25;100224.59;5055559;28;20982;-68
2024/02/06 03:26:31;;;;;;;3.23;1.47;;;;;;;9.64;95.88;100223.50;5055576;28;20484;-68
2024/02/06 03:28:58;;;;;;;2.20;0.93;;;;;;;9.62;95.98;100220.31;5055517;28;20845;-68
2024/02/06 03:31:26;;;;;;;2.27;0.93;;;;;;;9.60;95.65;100209.78;5055132;28;20467;-68
2024/02/06 03:33:52;;;;;;;3.17;1.43;;;;;;;9.57;95.89;100215.81;5055397;28;20517;-68
2024/02/06 03:36:19;;;;;;;3.70;1.40;;;;;;;9.56;96.31;100206.09;5055430;28;20438;-68
2024/02/06 03:38:46;;;;;;;2.77;1.30;;;;;;;9.56;96.37;100205.28;5055689;28;20525;-68
2024/02/06 03:41:13;;;;;;;1.70;0.60;;;;;;;9.57;96.49;100212.31;5055301;28;20443;-68
2024/02/06 03:43:40;;;;;;;3.30;1.20;;;;;;;9.46;98.13;100194.69;5055344;28;20550;-68
2024/02/06 03:46:06;;;;;;;2.17;0.87;;;;;;;9.47;97.57;100199.00;5055184;28;20526;-68
2024/02/06 03:48:35;;;;;;;2.47;1.20;;;;;;;9.53;97.26;100211.31;5055271;28;20438;-67
2024/02/06 03:51:01;;;;;;;3.27;1.07;;;;;;;9.49;97.55;100207.63;5055109;28;20450;-69
2024/02/06 03:53:28;;;;;;;4.13;1.63;;;;;;;9.49;97.93;100199.50;5054735;28;20458;-72
2024/02/06 03:55:55;;;;;;;2.10;0.70;;;;;;;9.51;98.20;100202.69;5055382;28;20521;-69
2024/02/06 03:58:21;;;;;;;3.30;1.23;;;;;;;9.48;98.14;100211.44;5055197;28;20438;-69
2024/02/06 04:00:50;;;;;;;4.20;0.97;;;;;;;9.43;98.38;100193.41;5054948;28;20521;-70
2024/02/06 04:03:17;;;;;;;3.90;1.13;;;;;;;9.38;98.86;100193.50;5054304;28;20501;-69
2024/02/06 04:05:45;;;;;;;3.30;0.63;;;;;;;9.41;98.56;100195.59;5054765;28;20490;-69
2024/02/06 04:08:12;;;;;;;2.43;1.00;;;;;;;9.39;98.86;100205.94;5054738;28;20446;-69
2024/02/06 04:10:39;;;;;;;5.00;0.90;;;;;;;9.38;98.57;100193.50;5054383;28;20442;-69
2024/02/06 04:13:08;;;;;;;1.97;0.83;;;;;;;9.39;98.27;100195.13;5054583;28;20550;-69
2024/02/06 04:15:34;;;;;;;2.30;0.90;;;;;;;9.35;98.61;100192.22;5054556;28;20442;-69
2024/02/06 04:18:03;;;;;;;2.03;0.80;;;;;;;9.37;98.30;100197.31;5054546;28;20513;-69
2024/02/06 04:20:30;;;;;;;2.40;0.70;;;;;;;9.45;98.07;100203.91;5054498;28;20470;-68
2024/02/06 04:23:00;;;;;;;2.80;1.37;;;;;;;9.42;97.62;100194.50;5054500;28;20481;-68
2024/02/06 04:25:26;;;;;;;2.90;1.30;;;;;;;9.48;97.39;100197.91;5054707;28;20482;-68
2024/02/06 04:27:53;;;;;;;2.30;0.90;;;;;;;9.46;97.36;100184.69;5054418;28;20496;-68
2024/02/06 04:30:20;;;;;;;2.20;0.87;;;;;;;9.55;96.79;100187.47;5054366;28;20469;-68
2024/02/06 04:32:48;;;;;;;2.73;0.93;;;;;;;9.48;96.87;100193.31;5054252;28;20545;-69
2024/02/06 04:35:15;;;;;;;3.60;1.00;;;;;;;9.52;96.95;100186.19;5053885;28;20449;-69
2024/02/06 04:37:41;;;;;;;2.37;0.70;;;;;;;9.46;97.05;100186.59;5054187;28;20437;-69
2024/02/06 04:40:10;;;;;;;2.40;0.83;;;;;;;9.47;97.37;100178.16;5054459;28;20481;-69
2024/02/06 04:42:37;;;;;;;2.40;0.97;;;;;;;9.46;97.10;100173.88;5054020;28;20454;-69
2024/02/06 04:45:05;;;;;;;2.03;0.70;;;;;;;9.51;97.04;100170.25;5053938;28;20482;-69
2024/02/06 04:47:33;;;;;;;2.00;0.80;;;;;;;9.49;97.31;100172.47;5054054;28;20446;-69
2024/02/06 04:49:59;;;;;;;2.10;0.70;;;;;;;9.43;98.12;100160.97;5053971;28;20442;-69
2024/02/06 04:52:26;;;;;;;3.10;0.83;;;;;;;9.43;98.51;100160.16;5054260;28;20550;-69
2024/02/06 04:54:53;;;;;;;2.60;1.00;;;;;;;9.37;99.14;100159.47;5053583;28;20995;-69
2024/02/06 04:57:21;;;;;;;2.77;0.97;;;;;;;9.42;99.26;100163.97;5054163;28;20442;-68
2024/02/06 04:59:48;;;;;;;1.90;0.53;;;;;;;9.48;98.82;100155.44;5054034;28;20438;-68
2024/02/06 05:02:14;;;;;;;2.83;0.90;;;;;;;9.41;99.85;100154.25;5053680;28;20563;-68
2024/02/06 05:04:41;;;;;;;3.63;1.00;;;;;;;9.39;100.00;100156.47;5053533;28;20482;-68
2024/02/06 05:07:08;;;;;;;6.77;1.30;;;;;;;9.44;99.69;100137.44;5054063;28;20438;-68
2024/02/06 05:09:35;;;;;;;1.70;0.60;;;;;;;9.48;99.51;100150.03;5053752;28;20515;-68
2024/02/06 05:12:02;;;;;;;2.30;1.00;;;;;;;9.48;99.85;100139.22;5053591;28;20976;-68
2024/02/06 05:14:31;;;;;;;2.40;1.13;;;;;;;9.44;100.00;100138.25;5052755;28;20434;-68
2024/02/06 05:16:57;;;;;;;2.47;1.20;;;;;;;9.50;99.94;100147.03;5053637;28;20503;-67
2024/02/06 05:19:24;;;;;;;2.50;1.17;;;;;;;9.45;100.00;100147.16;5053203;28;20973;-67
2024/02/06 05:21:51;;;;;;;2.03;0.67;;;;;;;9.43;100.00;100130.41;5053759;28;20544;-68
2024/02/06 05:24:17;;;;;;;2.50;0.90;;;;;;;9.43;100.00;100155.56;5053718;28;20446;-68
2024/02/06 05:26:44;;;;;;;2.10;0.70;;;;;;;9.41;100.00;100128.03;5053553;28;20438;-68
2024/02/06 05:29:11;;;;;;;2.47;1.30;;;;;;;9.47;99.48;100142.22;5053069;28;20493;-67
2024/02/06 05:31:39;;;;;;;2.70;1.67;;;;;;;9.44;100.00;100137.44;5053489;28;20525;-67
2024/02/06 05:34:05;;;;;;;2.00;0.60;;;;;;;9.40;99.75;100136.44;5053754;28;20473;-68
2024/02/06 05:36:32;;;;;;;4.40;1.43;;;;;;;9.41;99.64;100124.53;5052999;28;20442;-68
2024/02/06 05:38:59;;;;;;;3.20;1.27;;;;;;;9.47;98.79;100132.19;5053766;28;20441;-68
2024/02/06 05:41:25;;;;;;;2.30;0.87;;;;;;;9.58;98.20;100121.97;5053240;28;20482;-67
2024/02/06 05:43:52;;;;;;;1.97;0.70;;;;;;;9.63;97.36;100129.97;5053580;28;20547;-67
2024/02/06 05:46:19;;;;;;;2.60;0.93;;;;;;;9.63;97.32;100129.16;5053205;28;20539;-68
2024/02/06 05:48:48;;;;;;;2.77;1.00;;;;;;;9.58;96.90;100114.66;5053643;28;20953;-68
2024/02/06 05:51:15;;;;;;;2.47;0.97;;;;;;;9.63;96.79;100119.16;5052848;28;20485;-69
2024/02/06 05:53:41;;;;;;;3.63;1.30;;;;;;;9.74;95.67;100138.63;5053480;28;20549;-68
2024/02/06 05:56:08;;;;;;;2.30;1.10;;;;;;;9.66;96.11;100118.53;5053238;28;20469;-68
2024/02/06 05:58:37;;;;;;;2.87;1.33;;;;;;;9.66;96.55;100115.03;5052824;28;21018;-68
2024/02/06 06:01:05;;;;;;;2.20;0.83;;;;;;;9.68;96.07;100108.22;5053155;28;20442;-68
2024/02/06 06:03:31;;;;;;;4.20;0.83;;;;;;;9.68;95.96;100127.13;5052891;28;20477;-68
2024/02/06 06:05:59;;;;;;;2.33;0.77;;;;;;;9.72;96.03;100111.09;5052986;28;20521;-69
2024/02/06 06:08:26;;;;;;;2.00;0.60;;;;;;;9.74;96.02;100095.34;5052728;28;20890;-69
2024/02/06 06:10:53;;;;;;;3.10;1.17;;;;;;;9.73;96.02;100091.84;5053056;28;20532;-68
2024/02/06 06:13:19;;;;;;;2.00;0.80;;;;;;;9.75;95.97;100099.69;5053346;28;20498;-69
2024/02/06 06:15:47;;;;;;;2.47;0.77;;;;;;;9.80;95.28;100104.97;5053209;28;20465;-69
2024/02/06 06:18:13;;;;;;;3.70;1.37;;;;;;;9.73;96.13;100107.28;5053030;28;20513;-69
2024/02/06 06:20:40;;;;;;;4.07;1.10;;;;;;;9.79;95.64;100106.88;5052655;28;20481;-69
2024/02/06 06:23:08;;;;;;;2.87;1.37;;;;;;;9.84;95.02;100103.25;5052832;28;20501;-68
2024/02/06 06:25:35;;;;;;;2.43;1.20;;;;;;;9.85;95.44;100107.53;5054085;28;20485;-68
2024/02/06 06:28:02;;;;;;;3.40;1.30;;;;;;;9.83;95.72;100094.34;5056700;28;20982;-68
2024/02/06 06:30:29;;;;;;;3.17;1.10;;;;;;;9.83;95.34;100088.94;5056712;28;20470;-69
2024/02/06 06:32:57;;;;;;;2.20;0.70;;;;;;;9.81;95.70;100096.53;5056792;28;20458;-67
2024/02/06 06:35:23;;;;;;;3.60;1.10;;;;;;;9.86;95.61;100101.03;5056608;28;20453;-68
2024/02/06 06:37:50;;;;;;;3.73;1.10;;;;;;;9.86;95.55;100095.59;5057125;28;20507;-73
2024/02/06 06:40:18;;;;;;;2.23;0.90;;;;;;;9.89;95.57;100096.91;5058426;28;20480;-72
2024/02/06 06:42:45;;;;;;;2.23;0.97;;;;;;;9.86;95.23;100101.81;5056619;28;20562;-72
2024/02/06 06:45:11;;;;;;;3.03;0.90;;;;;;;9.85;95.38;100085.91;5057139;28;20571;-72
2024/02/06 06:47:39;;;;;;;3.27;1.17;;;;;;;9.82;95.96;100079.19;5056987;28;20533;-72
2024/02/06 06:50:07;;;;;;;2.20;0.70;;;;;;;9.89;95.53;100083.38;5056776;28;20442;-72
2024/02/06 06:52:34;;;;;;;1.90;0.70;;;;;;;9.91;95.30;100081.16;5057006;28;20505;-70
2024/02/06 06:55:00;;;;;;;2.63;0.90;;;;;;;9.86;95.85;100074.75;5056383;28;20993;-70
2024/02/06 06:57:28;;;;;;;14.83;1.30;;;;;;;9.89;95.35;100075.28;5056780;28;20478;-71
2024/02/06 06:59:55;;;;;;;1.83;0.60;;;;;;;9.86;95.55;100074.75;5056286;28;20439;-72
2024/02/06 07:02:21;;;;;;;3.07;0.93;;;;;;;9.85;95.87;100070.47;5055960;28;20469;-72
2024/02/06 07:04:48;;;;;;;2.43;0.80;;;;;;;9.87;95.55;100072.84;5055678;28;20835;-72
2024/02/06 07:07:14;;;;;;;2.70;1.10;;;;;;;9.93;95.29;100084.38;5056274;28;20468;-75
2024/02/06 07:09:41;;;;;;;4.27;1.90;;;;;;;9.95;95.17;100071.31;5056859;28;20529;-70
2024/02/06 07:12:08;;;;;;;5.60;1.03;;;;;;;9.97;94.42;100067.22;5058073;28;20537;-71
2024/02/06 07:14:37;;;;;;;2.87;1.33;;;;;;;9.94;95.00;100085.97;5057638;28;20442;-71
2024/02/06 07:17:05;;;;;;;2.27;0.90;;;;;;;9.95;95.12;100065.91;5057234;28;20438;-71
2024/02/06 07:19:32;;;;;;;2.20;0.87;;;;;;;10.09;93.48;100070.16;5056339;28;20551;-70
2024/02/06 07:21:59;;;;;;;2.07;0.73;;;;;;;10.08;93.80;100073.16;5055360;28;20494;-70
2024/02/06 07:24:26;;;;;;;2.73;1.13;;;;;;;9.98;94.42;100059.88;5055591;28;20485;-69
2024/02/06 07:26:52;;;;;;;1.83;0.70;;;;;;;9.93;95.32;100073.53;5055963;28;20508;-70
2024/02/06 07:29:19;;;;;;;2.03;0.80;;;;;;;9.96;94.98;100067.50;5056472;28;20485;-70
2024/02/06 07:31:47;;;;;;;1.90;0.70;;;;;;;10.01;95.21;100054.66;5055559;28;20497;-70
2024/02/06 07:34:14;;;;;;;3.03;1.40;;;;;;;10.01;95.13;100060.06;5055927;28;20437;-69
2024/02/06 07:36:41;;;;;;;4.07;1.50;;;;;;;10.08;94.50;100065.03;5054505;28;20439;-70
2024/02/06 07:39:07;;;;;;;1.93;0.80;;;;;;;10.11;94.25;100059.00;5055243;28;20449;-69
2024/02/06 07:41:34;;;;;;;2.50;0.87;;;;;;;10.09;94.74;100074.75;5055215;28;20872;-69
2024/02/06 07:44:01;;;;;;;2.20;0.90;;;;;;;10.15;94.12;100056.47;5055601;28;20442;-69
2024/02/06 07:46:28;;;;;;;2.30;1.00;;;;;;;10.16;94.36;100049.94;5055582;28;20575;-69
2024/02/06 07:48:56;;;;;;;2.47;1.00;;;;;;;10.17;93.91;100063.16;5055073;28;20453;-69
2024/02/06 07:51:23;;;;;;;2.07;0.87;;;;;;;10.19;93.97;100055.53;5055030;28;20442;-69
2024/02/06 07:53:50;;;;;;;2.67;1.00;;;;;;;10.32;93.26;100059.31;5055307;28;20448;-70
2024/02/06 07:56:17;;;;;;;2.20;0.80;;;;;;;10.33;92.91;100074.44;5055425;28;20480;-68
2024/02/06 07:58:44;;;;;;;3.40;0.90;;;;;;;10.33;92.81;100066.31;5054602;28;20614;-68
2024/02/06 08:01:11;;;;;;;2.27;0.80;;;;;;;10.32;93.02;100048.47;5055370;28;20530;-68
2024/02/06 08:03:38;;;;;;;2.10;0.90;;;;;;;10.30;92.78;100051.47;5054627;28;20481;-70
2024/02/06 08:06:07;;;;;;;1.97;0.67;;;;;;;10.33;93.21;100058.19;5054763;28;20493;-69
2024/02/06 08:08:33;;;;;;;5.93;1.03;;;;;;;10.33;93.18;100067.09;5054896;28;20484;-70
2024/02/06 08:11:00;;;;;;;2.27;0.83;;;;;;;10.35;93.56;100056.75;5054553;28;20526;-70
2024/02/06 08:13:27;;;;;;;2.60;0.90;;;;;;;10.38;93.51;100060.75;5054713;28;20993;-68
2024/02/06 08:15:54;;;;;;;2.30;0.83;;;;;;;10.45;92.60;100054.91;5055023;28;20869;-68
2024/02/06 08:18:21;;;;;;;2.20;0.70;;;;;;;10.38;92.92;100059.94;5054606;28;20442;-68
2024/02/06 08:20:47;;;;;;;1.90;0.63;;;;;;;10.39;93.03;100045.28;5054825;28;20782;-68
2024/02/06 08:23:16;;;;;;;2.30;0.90;;;;;;;10.35;93.54;100062.16;5054602;28;20488;-67
2024/02/06 08:25:43;;;;;;;2.40;1.00;;;;;;;10.42;92.60;100041.97;5054784;28;20580;-69
2024/02/06 08:28:10;;;;;;;2.33;0.90;;;;;;;10.41;92.62;100056.63;5054374;28;20449;-69
2024/02/06 08:30:37;;;;;;;2.43;1.13;;;;;;;10.48;92.39;100065.09;5054562;28;20525;-68
2024/02/06 08:33:03;;;;;;;2.10;0.87;;;;;;;10.42;93.18;100047.38;5054284;28;20470;-67
2024/02/06 08:35:30;;;;;;;1.90;0.80;;;;;;;10.45;92.58;100041.34;5054260;28;20462;-68
2024/02/06 08:37:57;;;;;;;1.90;0.70;;;;;;;10.50;92.01;100052.03;5054635;28;20858;-68
2024/02/06 08:40:25;;;;;;;2.73;0.60;;;;;;;10.56;91.94;100053.47;5054254;28;20534;-68
2024/02/06 08:42:51;;;;;;;1.90;0.60;;;;;;;10.65;90.70;100054.31;5053816;28;20494;-68
2024/02/06 08:45:18;;;;;;;2.30;0.70;;;;;;;10.72;90.56;100048.44;5053754;28;20470;-68
2024/02/06 08:47:45;;;;;;;2.17;0.87;;;;;;;10.71;90.40;100049.53;5053717;28;20470;-69
2024/02/06 08:50:11;;;;;;;2.00;0.73;;;;;;;10.68;90.63;100034.72;5053790;28;20942;-69
2024/02/06 08:52:38;;;;;;;1.87;0.60;;;;;;;10.70;90.20;100024.38;5053878;28;20464;-69
2024/02/06 08:55:06;;;;;;;2.20;0.73;;;;;;;10.78;89.77;100029.00;5054079;28;20442;-69
2024/02/06 08:57:35;;;;;;;2.23;0.87;;;;;;;10.79;89.73;100036.00;5053938;28;20453;-71
2024/02/06 09:00:02;;;;;;;2.70;1.00;;;;;;;10.83;89.39;100031.56;5053732;28;20438;-70
2024/02/06 09:02:30;;;;;;;3.13;1.27;;;;;;;10.78;89.86;100018.16;5053750;28;20477;-70
2024/02/06 09:04:56;;;;;;;2.43;1.17;;;;;;;10.84;88.94;100032.34;5053679;28;20466;-70
2024/02/06 09:07:25;;;;;;;2.20;0.87;;;;;;;10.85;88.53;100021.22;5053707;28;20581;-70
2024/02/06 09:09:52;;;;;;;2.37;0.70;;;;;;;10.90;88.40;100022.19;5053727;28;20457;-70
2024/02/06 09:12:18;;;;;;;2.50;0.93;;;;;;;10.95;87.44;100032.88;5053561;28;20458;-69
2024/02/06 09:14:47;;;;;;;2.10;1.00;;;;;;;10.94;87.91;100034.00;5053632;28;20442;-69
2024/02/06 09:17:13;;;;;;;2.63;1.10;;;;;;;10.94;87.76;100036.69;5053280;28;20481;-68
2024/02/06 09:19:40;;;;;;;2.40;0.80;;;;;;;10.93;87.33;100025.03;5053617;28;20441;-68
2024/02/06 09:22:07;;;;;;;2.17;1.03;;;;;;;10.86;87.92;100019.31;5053398;28;20457;-69
2024/02/06 09:24:33;;;;;;;4.80;1.03;;;;;;;10.92;87.78;100030.78;5053129;28;20445;-70
2024/02/06 09:27:00;;;;;;;2.33;0.60;;;;;;;10.88;87.59;100016.28;5053422;28;20488;-69
2024/02/06 09:29:27;;;;;;;7.00;1.13;;;;;;;10.86;87.73;100019.31;5053549;28;20443;-69
2024/02/06 09:31:56;;;;;;;2.07;0.63;;;;;;;10.92;87.95;100022.66;5053343;28;20887;-70
2024/02/06 09:34:23;;;;;;;2.90;0.73;;;;;;;10.97;87.06;100015.16;5053281;28;20457;-69
2024/02/06 09:36:50;;;;;;;2.00;0.87;;;;;;;10.96;87.05;100029.81;5053750;28;20521;-72
2024/02/06 09:39:17;;;;;;;1.90;0.70;;;;;;;11.01;87.25;100016.13;5053404;28;20457;-69
2024/02/06 09:41:46;;;;;;;2.77;0.70;;;;;;;11.01;87.59;100024.25;5053202;28;20489;-69
2024/02/06 09:44:14;;;;;;;2.57;0.87;;;;;;;11.02;87.51;100031.28;5053162;28;20438;-69
2024/02/06 09:46:41;;;;;;;2.90;1.00;;;;;;;11.15;86.51;100031.44;5053180;28;20577;-69
2024/02/06 09:49:09;;;;;;;2.10;0.70;;;;;;;11.14;87.02;100019.78;5053212;28;20433;-70
2024/02/06 09:51:41;;;;;;;2.30;0.80;;;;;;;11.26;86.18;100033.53;5052898;28;20902;-69
2024/02/06 09:54:10;;;;;;;2.40;0.73;;;;;;;11.34;85.83;100030.03;5053617;28;20433;-69
2024/02/06 09:56:40;;;;;;;1.97;0.67;;;;;;;11.23;86.54;100023.31;5052873;28;20529;-70
2024/02/06 09:59:07;;;;;;;5.00;0.97;;;;;;;11.25;87.02;100031.94;5052925;28;20468;-68
2024/02/06 10:01:37;;;;;;;2.50;0.80;;;;;;;11.24;87.53;100057.44;5055751;28;20478;-69
2024/02/06 10:04:05;;;;;;;2.50;0.90;;;;;;;11.29;86.63;100016.63;5056919;28;20445;-69
2024/02/06 10:06:35;;;;;;;2.23;0.70;;;;;;;11.32;87.02;100015.16;5057216;28;20482;-69
2024/02/06 10:09:03;;;;;;;2.43;0.63;;;;;;;11.38;86.71;100016.63;5057414;28;20469;-70
2024/02/06 10:11:34;;;;;;;2.53;0.80;;;;;;;11.50;85.98;100007.81;5056984;28;20809;-69
2024/02/06 10:14:02;;;;;;;4.20;0.70;;;;;;;11.51;85.84;100003.97;5057049;28;20780;-69
2024/02/06 10:16:28;;;;;;;2.27;0.70;;;;;;;11.55;85.04;100003.03;5056961;28;20528;-69
2024/02/06 10:18:57;;;;;;;2.57;0.50;;;;;;;11.55;84.88;100003.03;5056900;28;20448;-69
2024/02/06 10:21:24;;;;;;;2.13;0.70;;;;;;;11.62;84.83;100013.38;5056886;28;20529;-69
2024/02/06 10:24:00;;;;;;;2.57;0.70;;;;;;;11.66;84.12;100005.41;5056488;28;20442;-68
2024/02/06 10:26:26;;;;;;;2.00;0.57;;;;;;;11.59;84.58;100014.81;5057002;28;20476;-68
2024/02/06 10:29:04;;;;;;;4.17;0.90;;;;;;;11.67;84.54;99998.84;5056418;28;20876;-69
2024/02/06 10:31:31;;;;;;;1.90;0.70;;;;;;;11.65;84.72;100012.75;5056648;28;20509;-69
2024/02/06 10:34:09;;;;;;;2.00;0.73;;;;;;;11.63;85.07;100009.56;5057923;28;20445;-71
2024/02/06 10:36:36;;;;;;;2.47;0.73;;;;;;;11.59;85.73;100008.59;5059203;28;20419;-73
2024/02/06 10:39:06;;;;;;;2.97;0.90;;;;;;;11.58;85.24;99999.66;5056763;28;20430;-67
2024/02/06 10:41:32;;;;;;;1.80;0.53;;;;;;;11.58;85.49;99990.75;5056359;28;20515;-68
2024/02/06 10:43:59;;;;;;;3.57;0.80;;;;;;;11.55;86.04;100018.50;5056545;28;20426;-68
2024/02/06 10:46:26;;;;;;;1.73;0.60;;;;;;;11.49;86.71;100008.94;5056173;28;21099;-71
2024/02/06 10:49:03;;;;;;;1.70;0.53;;;;;;;11.44;86.44;99990.13;5056463;28;20521;-71
2024/02/06 10:51:29;;;;;;;3.40;0.90;;;;;;;11.46;86.79;100001.44;5056869;28;20781;-71
2024/02/06 10:53:56;;;;;;;2.10;0.70;;;;;;;11.44;87.14;99988.22;5059730;28;20529;-72
2024/02/06 10:56:25;;;;;;;2.20;0.77;;;;;;;11.41;87.58;99985.34;5056277;28;20438;-67
2024/02/06 10:58:56;;;;;;;1.90;0.57;;;;;;;11.43;87.32;99992.06;5056521;28;20434;-68
2024/02/06 11:01:28;;;;;;;2.60;0.80;;;;;;;11.47;86.99;99984.88;5055995;28;20433;-68
2024/02/06 11:03:58;;;;;;;1.83;0.57;;;;;;;11.44;87.26;99985.50;5055859;28;20454;-68
2024/02/06 11:06:27;;;;;;;1.90;0.50;;;;;;;11.52;86.47;99987.41;5055642;28;20804;-68
2024/02/06 11:08:56;;;;;;;2.50;0.93;;;;;;;11.42;87.41;99967.94;5055971;28;20450;-68
2024/02/06 11:11:25;;;;;;;4.20;1.00;;;;;;;11.40;87.42;99981.03;5055035;28;20965;-69
2024/02/06 11:13:53;;;;;;;2.40;0.70;;;;;;;11.35;87.90;99980.09;5055416;28;20530;-68
2024/02/06 11:16:22;;;;;;;2.20;0.83;;;;;;;11.46;87.64;99963.47;5056103;28;20517;-68
2024/02/06 11:19:00;;;;;;;1.90;0.50;;;;;;;11.49;87.61;99982.63;5056123;28;20435;-67
2024/02/06 11:21:27;;;;;;;1.80;0.50;;;;;;;11.45;88.01;99959.19;5055920;28;20465;-68
2024/02/06 11:23:57;;;;;;;1.70;0.50;;;;;;;11.48;87.83;99972.09;5056008;28;20859;-68
2024/02/06 11:26:25;;;;;;;1.90;0.77;;;;;;;11.47;87.60;99970.50;5055621;28;21107;-69
2024/02/06 11:28:54;;;;;;;1.80;0.53;;;;;;;11.46;87.99;99966.97;5055341;28;20489;-69